sensor_id;sensor_type;location;lat;lon;timestamp;pressure;altitude;pressure_sealevel;temperature;humidity
58473;BME280;44775;51.564;5.460;2024-03-08T00:01:26;101489.38;;;3.80;100.00
58473;BME280;44775;51.564;5.460;2024-03-08T00:03:51;101492.06;;;3.67;100.00
58473;BME280;44775;51.564;5.460;2024-03-08T00:06:17;101484.50;;;3.87;100.00
58473;BME280;44775;51.564;5.460;2024-03-08T00:08:42;101485.06;;;3.79;100.00
58473;BME280;44775;51.564;5.460;2024-03-08T00:11:08;101481.13;;;3.85;100.00
58473;BME280;44775;51.564;5.460;2024-03-08T00:13:33;101468.56;;;3.88;100.00
58473;BME280;44775;51.564;5.460;2024-03-08T00:15:59;101467.25;;;3.94;100.00
58473;BME280;44775;51.564;5.460;2024-03-08T00:18:24;101466.66;;;3.77;100.00
58473;BME280;44775;51.564;5.460;2024-03-08T00:20:50;101462.44;;;3.75;100.00
58473;BME280;44775;51.564;5.460;2024-03-08T00:23:16;101466.59;;;3.53;100.00
58473;BME280;44775;51.564;5.460;2024-03-08T00:25:41;101450.88;;;3.39;100.00
58473;BME280;44775;51.564;5.460;2024-03-08T00:28:06;101456.91;;;3.41;100.00
58473;BME280;44775;51.564;5.460;2024-03-08T00:30:32;101460.38;;;3.42;100.00
58473;BME280;44775;51.564;5.460;2024-03-08T00:32:57;101453.31;;;3.42;100.00
58473;BME280;44775;51.564;5.460;2024-03-08T00:35:22;101461.41;;;3.65;100.00
58473;BME280;44775;51.564;5.460;2024-03-08T00:37:48;101454.31;;;3.78;100.00
58473;BME280;44775;51.564;5.460;2024-03-08T00:40:14;101454.59;;;3.86;100.00
58473;BME280;44775;51.564;5.460;2024-03-08T00:42:39;101441.88;;;3.54;100.00
58473;BME280;44775;51.564;5.460;2024-03-08T00:45:06;101444.53;;;3.29;100.00
58473;BME280;44775;51.564;5.460;2024-03-08T00:47:32;101439.59;;;3.12;100.00
58473;BME280;44775;51.564;5.460;2024-03-08T00:49:58;101449.19;;;3.13;100.00
58473;BME280;44775;51.564;5.460;2024-03-08T00:52:24;101447.50;;;3.12;100.00
58473;BME280;44775;51.564;5.460;2024-03-08T00:54:50;101451.22;;;3.22;100.00
58473;BME280;44775;51.564;5.460;2024-03-08T00:57:15;101442.22;;;2.99;100.00
58473;BME280;44775;51.564;5.460;2024-03-08T00:59:41;101426.50;;;2.84;100.00
58473;BME280;44775;51.564;5.460;2024-03-08T01:02:06;101428.72;;;2.91;100.00
58473;BME280;44775;51.564;5.460;2024-03-08T01:04:31;101431.88;;;3.08;100.00
58473;BME280;44775;51.564;5.460;2024-03-08T01:06:58;101425.13;;;2.92;100.00
58473;BME280;44775;51.564;5.460;2024-03-08T01:09:24;101415.81;;;2.86;100.00
58473;BME280;44775;51.564;5.460;2024-03-08T01:11:51;101421.53;;;3.05;100.00
58473;BME280;44775;51.564;5.460;2024-03-08T01:14:19;101412.22;;;3.38;100.00
58473;BME280;44775;51.564;5.460;2024-03-08T01:16:47;101409.56;;;3.25;100.00
58473;BME280;44775;51.564;5.460;2024-03-08T01:19:13;101415.63;;;3.15;100.00
58473;BME280;44775;51.564;5.460;2024-03-08T01:21:38;101408.19;;;3.20;100.00
58473;BME280;44775;51.564;5.460;2024-03-08T01:24:04;101414.66;;;2.90;100.00
58473;BME280;44775;51.564;5.460;2024-03-08T01:26:29;101410.50;;;2.73;100.00
58473;BME280;44775;51.564;5.460;2024-03-08T01:28:55;101410.03;;;2.94;100.00
58473;BME280;44775;51.564;5.460;2024-03-08T01:31:21;101405.47;;;2.70;100.00
58473;BME280;44775;51.564;5.460;2024-03-08T01:33:46;101397.03;;;2.78;100.00
58473;BME280;44775;51.564;5.460;2024-03-08T01:36:11;101393.84;;;2.73;100.00
58473;BME280;44775;51.564;5.460;2024-03-08T01:38:40;101397.41;;;2.59;100.00
58473;BME280;44775;51.564;5.460;2024-03-08T01:41:05;101397.38;;;2.46;100.00
58473;BME280;44775;51.564;5.460;2024-03-08T01:43:31;101389.94;;;2.66;100.00
58473;BME280;44775;51.564;5.460;2024-03-08T01:45:59;101386.03;;;2.71;100.00
58473;BME280;44775;51.564;5.460;2024-03-08T01:48:26;101383.38;;;2.58;100.00
58473;BME280;44775;51.564;5.460;2024-03-08T01:50:52;101387.97;;;2.29;100.00
58473;BME280;44775;51.564;5.460;2024-03-08T01:53:19;101380.25;;;2.13;100.00
58473;BME280;44775;51.564;5.460;2024-03-08T01:55:46;101381.16;;;2.12;100.00
58473;BME280;44775;51.564;5.460;2024-03-08T01:58:12;101374.78;;;2.17;100.00
58473;BME280;44775;51.564;5.460;2024-03-08T02:00:42;101359.00;;;2.02;100.00
58473;BME280;44775;51.564;5.460;2024-03-08T02:03:08;101362.03;;;2.36;100.00
58473;BME280;44775;51.564;5.460;2024-03-08T02:05:34;101369.97;;;2.49;100.00
58473;BME280;44775;51.564;5.460;2024-03-08T02:08:00;101359.97;;;2.67;100.00
58473;BME280;44775;51.564;5.460;2024-03-08T02:10:26;101364.91;;;2.58;100.00
58473;BME280;44775;51.564;5.460;2024-03-08T02:12:51;101349.50;;;2.65;100.00
58473;BME280;44775;51.564;5.460;2024-03-08T02:15:17;101355.41;;;2.56;100.00
58473;BME280;44775;51.564;5.460;2024-03-08T02:17:42;101360.59;;;2.57;100.00
58473;BME280;44775;51.564;5.460;2024-03-08T02:20:08;101361.97;;;2.50;100.00
58473;BME280;44775;51.564;5.460;2024-03-08T02:22:34;101347.28;;;2.46;100.00
58473;BME280;44775;51.564;5.460;2024-03-08T02:25:02;101354.56;;;2.43;100.00
58473;BME280;44775;51.564;5.460;2024-03-08T02:27:28;101331.97;;;2.39;100.00
58473;BME280;44775;51.564;5.460;2024-03-08T02:29:55;101351.72;;;2.46;100.00
58473;BME280;44775;51.564;5.460;2024-03-08T02:32:22;101335.59;;;2.50;100.00
58473;BME280;44775;51.564;5.460;2024-03-08T02:34:48;101339.59;;;2.69;100.00
58473;BME280;44775;51.564;5.460;2024-03-08T02:37:14;101334.53;;;2.66;100.00
58473;BME280;44775;51.564;5.460;2024-03-08T02:39:40;101334.09;;;2.46;100.00
58473;BME280;44775;51.564;5.460;2024-03-08T02:42:06;101332.28;;;2.34;100.00
58473;BME280;44775;51.564;5.460;2024-03-08T02:44:31;101331.00;;;2.14;100.00
58473;BME280;44775;51.564;5.460;2024-03-08T02:46:58;101328.25;;;2.16;100.00
58473;BME280;44775;51.564;5.460;2024-03-08T02:49:25;101324.59;;;2.44;100.00
58473;BME280;44775;51.564;5.460;2024-03-08T02:51:51;101319.41;;;2.42;100.00
58473;BME280;44775;51.564;5.460;2024-03-08T02:54:17;101320.06;;;2.33;100.00
58473;BME280;44775;51.564;5.460;2024-03-08T02:56:42;101310.06;;;2.64;100.00
58473;BME280;44775;51.564;5.460;2024-03-08T02:59:07;101309.19;;;2.76;100.00
58473;BME280;44775;51.564;5.460;2024-03-08T03:01:33;101300.84;;;2.69;100.00
58473;BME280;44775;51.564;5.460;2024-03-08T03:04:00;101304.16;;;2.60;100.00
58473;BME280;44775;51.564;5.460;2024-03-08T03:06:25;101311.09;;;2.48;100.00
58473;BME280;44775;51.564;5.460;2024-03-08T03:08:51;101306.63;;;2.36;100.00
58473;BME280;44775;51.564;5.460;2024-03-08T03:11:16;101298.94;;;2.46;100.00
58473;BME280;44775;51.564;5.460;2024-03-08T03:13:42;101295.78;;;2.28;100.00
58473;BME280;44775;51.564;5.460;2024-03-08T03:16:17;101289.03;;;2.24;100.00
58473;BME280;44775;51.564;5.460;2024-03-08T03:18:42;101296.50;;;2.17;100.00
58473;BME280;44775;51.564;5.460;2024-03-08T03:21:08;101301.25;;;2.12;100.00
58473;BME280;44775;51.564;5.460;2024-03-08T03:23:33;101282.56;;;2.15;100.00
58473;BME280;44775;51.564;5.460;2024-03-08T03:25:58;101284.91;;;2.20;100.00
58473;BME280;44775;51.564;5.460;2024-03-08T03:28:25;101292.06;;;2.18;100.00
58473;BME280;44775;51.564;5.460;2024-03-08T03:30:50;101283.00;;;1.96;100.00
58473;BME280;44775;51.564;5.460;2024-03-08T03:33:15;101279.28;;;1.86;100.00
58473;BME280;44775;51.564;5.460;2024-03-08T03:35:42;101279.94;;;1.62;100.00
58473;BME280;44775;51.564;5.460;2024-03-08T03:38:09;101273.38;;;1.55;100.00
58473;BME280;44775;51.564;5.460;2024-03-08T03:40:35;101274.75;;;1.61;100.00
58473;BME280;44775;51.564;5.460;2024-03-08T03:43:00;101277.84;;;1.68;100.00
58473;BME280;44775;51.564;5.460;2024-03-08T03:45:27;101264.59;;;1.69;100.00
58473;BME280;44775;51.564;5.460;2024-03-08T03:47:52;101270.88;;;1.67;100.00
58473;BME280;44775;51.564;5.460;2024-03-08T03:50:18;101276.19;;;1.79;100.00
58473;BME280;44775;51.564;5.460;2024-03-08T03:52:45;101275.34;;;1.79;100.00
58473;BME280;44775;51.564;5.460;2024-03-08T03:55:10;101266.53;;;1.93;100.00
58473;BME280;44775;51.564;5.460;2024-03-08T03:57:37;101266.75;;;2.15;100.00
58473;BME280;44775;51.564;5.460;2024-03-08T04:00:03;101260.84;;;2.11;100.00
58473;BME280;44775;51.564;5.460;2024-03-08T04:02:29;101255.78;;;2.08;100.00
58473;BME280;44775;51.564;5.460;2024-03-08T04:04:55;101263.97;;;1.91;100.00
58473;BME280;44775;51.564;5.460;2024-03-08T04:07:21;101256.69;;;1.82;100.00
58473;BME280;44775;51.564;5.460;2024-03-08T04:09:46;101260.66;;;2.15;100.00
58473;BME280;44775;51.564;5.460;2024-03-08T04:12:12;101240.72;;;2.10;100.00
58473;BME280;44775;51.564;5.460;2024-03-08T04:14:39;101249.88;;;2.05;100.00
58473;BME280;44775;51.564;5.460;2024-03-08T04:17:05;101251.13;;;1.86;100.00
58473;BME280;44775;51.564;5.460;2024-03-08T04:19:31;101247.47;;;1.62;100.00
58473;BME280;44775;51.564;5.460;2024-03-08T04:21:56;101250.34;;;1.45;100.00
58473;BME280;44775;51.564;5.460;2024-03-08T04:24:22;101247.66;;;1.46;100.00
58473;BME280;44775;51.564;5.460;2024-03-08T04:26:47;101240.97;;;1.40;100.00
58473;BME280;44775;51.564;5.460;2024-03-08T04:29:12;101238.19;;;1.56;100.00
58473;BME280;44775;51.564;5.460;2024-03-08T04:31:40;101237.56;;;1.53;100.00
58473;BME280;44775;51.564;5.460;2024-03-08T04:34:05;101239.69;;;1.60;100.00
58473;BME280;44775;51.564;5.460;2024-03-08T04:36:30;101238.72;;;1.61;100.00
58473;BME280;44775;51.564;5.460;2024-03-08T04:38:55;101247.38;;;1.63;100.00
58473;BME280;44775;51.564;5.460;2024-03-08T04:41:21;101232.38;;;1.51;100.00
58473;BME280;44775;51.564;5.460;2024-03-08T04:43:48;101229.84;;;1.50;100.00
58473;BME280;44775;51.564;5.460;2024-03-08T04:46:13;101235.00;;;1.38;100.00
58473;BME280;44775;51.564;5.460;2024-03-08T04:48:39;101236.84;;;1.63;100.00
58473;BME280;44775;51.564;5.460;2024-03-08T04:51:04;101235.88;;;1.64;100.00
58473;BME280;44775;51.564;5.460;2024-03-08T04:53:30;101224.13;;;1.83;100.00
58473;BME280;44775;51.564;5.460;2024-03-08T04:55:58;101231.09;;;1.84;100.00
58473;BME280;44775;51.564;5.460;2024-03-08T04:58:24;101215.56;;;1.67;100.00
58473;BME280;44775;51.564;5.460;2024-03-08T05:00:49;101215.78;;;1.76;100.00
58473;BME280;44775;51.564;5.460;2024-03-08T05:03:15;101222.22;;;1.72;100.00
58473;BME280;44775;51.564;5.460;2024-03-08T05:05:41;101212.63;;;1.84;100.00
58473;BME280;44775;51.564;5.460;2024-03-08T05:08:06;101209.47;;;1.92;100.00
58473;BME280;44775;51.564;5.460;2024-03-08T05:10:31;101214.69;;;2.06;100.00
58473;BME280;44775;51.564;5.460;2024-03-08T05:12:57;101207.38;;;1.84;100.00
58473;BME280;44775;51.564;5.460;2024-03-08T05:15:23;101214.41;;;1.71;100.00
58473;BME280;44775;51.564;5.460;2024-03-08T05:17:48;101213.22;;;1.62;100.00
58473;BME280;44775;51.564;5.460;2024-03-08T05:20:13;101210.56;;;1.89;100.00
58473;BME280;44775;51.564;5.460;2024-03-08T05:22:39;101214.00;;;2.02;100.00
58473;BME280;44775;51.564;5.460;2024-03-08T05:25:06;101201.78;;;1.76;100.00
58473;BME280;44775;51.564;5.460;2024-03-08T05:27:33;101197.31;;;1.63;100.00
58473;BME280;44775;51.564;5.460;2024-03-08T05:29:59;101206.16;;;1.50;100.00
58473;BME280;44775;51.564;5.460;2024-03-08T05:32:24;101192.13;;;1.49;100.00
58473;BME280;44775;51.564;5.460;2024-03-08T05:34:50;101203.41;;;1.51;100.00
58473;BME280;44775;51.564;5.460;2024-03-08T05:37:15;101181.94;;;1.57;100.00
58473;BME280;44775;51.564;5.460;2024-03-08T05:39:41;101193.75;;;1.64;100.00
58473;BME280;44775;51.564;5.460;2024-03-08T05:42:06;101200.19;;;1.73;100.00
58473;BME280;44775;51.564;5.460;2024-03-08T05:44:33;101195.56;;;1.77;100.00
58473;BME280;44775;51.564;5.460;2024-03-08T05:46:59;101197.13;;;1.67;100.00
58473;BME280;44775;51.564;5.460;2024-03-08T05:49:24;101191.00;;;1.79;100.00
58473;BME280;44775;51.564;5.460;2024-03-08T05:51:50;101176.50;;;1.86;100.00
58473;BME280;44775;51.564;5.460;2024-03-08T05:54:16;101183.75;;;1.70;100.00
58473;BME280;44775;51.564;5.460;2024-03-08T05:56:42;101172.97;;;1.60;100.00
58473;BME280;44775;51.564;5.460;2024-03-08T05:59:08;101183.00;;;1.68;100.00
58473;BME280;44775;51.564;5.460;2024-03-08T06:01:34;101184.91;;;1.65;100.00
58473;BME280;44775;51.564;5.460;2024-03-08T06:04:02;101191.66;;;1.70;100.00
58473;BME280;44775;51.564;5.460;2024-03-08T06:06:27;101189.59;;;1.48;100.00
58473;BME280;44775;51.564;5.460;2024-03-08T06:08:53;101182.22;;;1.40;100.00
58473;BME280;44775;51.564;5.460;2024-03-08T06:11:19;101179.41;;;1.69;100.00
58473;BME280;44775;51.564;5.460;2024-03-08T06:13:48;101178.69;;;1.67;100.00
58473;BME280;44775;51.564;5.460;2024-03-08T06:16:14;101172.25;;;1.71;100.00
58473;BME280;44775;51.564;5.460;2024-03-08T06:18:39;101164.72;;;1.52;100.00
58473;BME280;44775;51.564;5.460;2024-03-08T06:21:06;101167.88;;;1.44;100.00
58473;BME280;44775;51.564;5.460;2024-03-08T06:23:35;101155.47;;;1.46;100.00
58473;BME280;44775;51.564;5.460;2024-03-08T06:26:07;101161.34;;;1.37;100.00
58473;BME280;44775;51.564;5.460;2024-03-08T06:28:32;101156.38;;;1.32;100.00
58473;BME280;44775;51.564;5.460;2024-03-08T06:30:58;101156.53;;;1.56;100.00
58473;BME280;44775;51.564;5.460;2024-03-08T06:33:24;101160.84;;;1.57;100.00
58473;BME280;44775;51.564;5.460;2024-03-08T06:35:51;101158.75;;;1.75;100.00
58473;BME280;44775;51.564;5.460;2024-03-08T06:38:17;101153.16;;;1.54;100.00
58473;BME280;44775;51.564;5.460;2024-03-08T06:40:42;101159.75;;;2.00;100.00
58473;BME280;44775;51.564;5.460;2024-03-08T06:43:07;101155.72;;;1.81;100.00
58473;BME280;44775;51.564;5.460;2024-03-08T06:45:33;101150.66;;;1.65;100.00
58473;BME280;44775;51.564;5.460;2024-03-08T06:47:58;101152.00;;;1.58;100.00
58473;BME280;44775;51.564;5.460;2024-03-08T06:50:23;101141.25;;;1.61;100.00
58473;BME280;44775;51.564;5.460;2024-03-08T06:52:49;101152.44;;;1.78;100.00
58473;BME280;44775;51.564;5.460;2024-03-08T06:55:19;101136.41;;;1.42;100.00
58473;BME280;44775;51.564;5.460;2024-03-08T06:57:44;101137.34;;;1.54;100.00
58473;BME280;44775;51.564;5.460;2024-03-08T07:00:10;101134.44;;;1.84;100.00
58473;BME280;44775;51.564;5.460;2024-03-08T07:02:37;101146.84;;;1.95;100.00
58473;BME280;44775;51.564;5.460;2024-03-08T07:05:05;101143.16;;;1.98;100.00
58473;BME280;44775;51.564;5.460;2024-03-08T07:07:30;101138.94;;;1.95;100.00
58473;BME280;44775;51.564;5.460;2024-03-08T07:09:57;101138.53;;;2.01;100.00
58473;BME280;44775;51.564;5.460;2024-03-08T07:12:22;101139.28;;;2.03;100.00
58473;BME280;44775;51.564;5.460;2024-03-08T07:14:48;101140.13;;;1.91;100.00
58473;BME280;44775;51.564;5.460;2024-03-08T07:17:13;101137.38;;;1.93;100.00
58473;BME280;44775;51.564;5.460;2024-03-08T07:19:39;101139.41;;;1.89;100.00
58473;BME280;44775;51.564;5.460;2024-03-08T07:22:05;101132.22;;;2.04;100.00
58473;BME280;44775;51.564;5.460;2024-03-08T07:24:34;101129.88;;;2.25;100.00
58473;BME280;44775;51.564;5.460;2024-03-08T07:27:35;101138.25;;;2.43;100.00
58473;BME280;44775;51.564;5.460;2024-03-08T07:30:02;101131.91;;;2.58;100.00
58473;BME280;44775;51.564;5.460;2024-03-08T07:32:28;101126.00;;;2.54;100.00
58473;BME280;44775;51.564;5.460;2024-03-08T07:34:55;101137.78;;;2.98;100.00
58473;BME280;44775;51.564;5.460;2024-03-08T07:37:20;101131.91;;;3.30;100.00
58473;BME280;44775;51.564;5.460;2024-03-08T07:39:46;101132.44;;;3.58;100.00
58473;BME280;44775;51.564;5.460;2024-03-08T07:42:11;101127.69;;;3.74;100.00
58473;BME280;44775;51.564;5.460;2024-03-08T07:44:37;101139.72;;;3.78;100.00
58473;BME280;44775;51.564;5.460;2024-03-08T07:47:03;101133.75;;;4.10;100.00
58473;BME280;44775;51.564;5.460;2024-03-08T07:49:29;101132.50;;;5.34;100.00
58473;BME280;44775;51.564;5.460;2024-03-08T07:51:55;101122.50;;;6.41;100.00
58473;BME280;44775;51.564;5.460;2024-03-08T07:54:21;101125.72;;;7.33;100.00
58473;BME280;44775;51.564;5.460;2024-03-08T07:56:46;101124.88;;;8.09;100.00
58473;BME280;44775;51.564;5.460;2024-03-08T07:59:12;101127.84;;;8.71;100.00
58473;BME280;44775;51.564;5.460;2024-03-08T08:01:37;101121.34;;;9.01;100.00
58473;BME280;44775;51.564;5.460;2024-03-08T08:04:03;101117.19;;;9.07;100.00
58473;BME280;44775;51.564;5.460;2024-03-08T08:06:28;101112.31;;;9.20;96.15
58473;BME280;44775;51.564;5.460;2024-03-08T08:08:57;101114.38;;;9.70;99.69
58473;BME280;44775;51.564;5.460;2024-03-08T08:11:22;101112.88;;;9.93;95.77
58473;BME280;44775;51.564;5.460;2024-03-08T08:13:47;101112.06;;;10.01;92.94
58473;BME280;44775;51.564;5.460;2024-03-08T08:16:13;101106.00;;;10.17;89.99
58473;BME280;44775;51.564;5.460;2024-03-08T08:18:38;101112.03;;;10.53;88.55
58473;BME280;44775;51.564;5.460;2024-03-08T08:21:04;101105.22;;;10.75;85.81
58473;BME280;44775;51.564;5.460;2024-03-08T08:23:31;101110.97;;;11.05;83.44
58473;BME280;44775;51.564;5.460;2024-03-08T08:25:56;101104.94;;;11.19;81.20
58473;BME280;44775;51.564;5.460;2024-03-08T08:28:22;101091.72;;;11.09;79.52
58473;BME280;44775;51.564;5.460;2024-03-08T08:30:47;101085.88;;;11.06;79.01
58473;BME280;44775;51.564;5.460;2024-03-08T08:33:14;101101.13;;;11.38;77.99
58473;BME280;44775;51.564;5.460;2024-03-08T08:35:40;101101.13;;;11.54;76.96
58473;BME280;44775;51.564;5.460;2024-03-08T08:38:05;101096.09;;;11.68;76.04
58473;BME280;44775;51.564;5.460;2024-03-08T08:40:32;101088.34;;;11.81;74.75
58473;BME280;44775;51.564;5.460;2024-03-08T08:42:59;101088.84;;;11.76;74.17
58473;BME280;44775;51.564;5.460;2024-03-08T08:45:25;101082.53;;;11.86;73.46
58473;BME280;44775;51.564;5.460;2024-03-08T08:47:50;101081.13;;;11.98;72.34
58473;BME280;44775;51.564;5.460;2024-03-08T08:50:16;101078.25;;;12.16;71.87
58473;BME280;44775;51.564;5.460;2024-03-08T08:52:41;101079.50;;;12.36;70.35
58473;BME280;44775;51.564;5.460;2024-03-08T08:55:10;101082.44;;;12.49;69.38
58473;BME280;44775;51.564;5.460;2024-03-08T08:57:42;101091.44;;;12.57;68.64
58473;BME280;44775;51.564;5.460;2024-03-08T09:00:08;101067.81;;;12.60;67.98
58473;BME280;44775;51.564;5.460;2024-03-08T09:02:39;101066.56;;;12.71;67.38
58473;BME280;44775;51.564;5.460;2024-03-08T09:05:06;101071.50;;;12.59;67.59
58473;BME280;44775;51.564;5.460;2024-03-08T09:07:33;101065.41;;;12.65;67.31
58473;BME280;44775;51.564;5.460;2024-03-08T09:09:59;101054.19;;;12.70;66.00
58473;BME280;44775;51.564;5.460;2024-03-08T09:12:24;101060.63;;;12.84;65.94
58473;BME280;44775;51.564;5.460;2024-03-08T09:14:50;101048.50;;;12.88;65.70
58473;BME280;44775;51.564;5.460;2024-03-08T09:17:15;101049.06;;;12.83;65.45
58473;BME280;44775;51.564;5.460;2024-03-08T09:19:45;101043.50;;;13.08;65.03
58473;BME280;44775;51.564;5.460;2024-03-08T09:22:10;101033.16;;;13.19;64.22
58473;BME280;44775;51.564;5.460;2024-03-08T09:24:36;101044.91;;;13.27;63.00
58473;BME280;44775;51.564;5.460;2024-03-08T09:27:01;101033.72;;;13.15;63.56
58473;BME280;44775;51.564;5.460;2024-03-08T09:29:26;101026.47;;;13.00;63.60
58473;BME280;44775;51.564;5.460;2024-03-08T09:31:52;101037.69;;;13.19;62.73
58473;BME280;44775;51.564;5.460;2024-03-08T09:34:17;101023.91;;;13.30;62.87
58473;BME280;44775;51.564;5.460;2024-03-08T09:36:44;101027.22;;;13.32;63.03
58473;BME280;44775;51.564;5.460;2024-03-08T09:39:09;101018.28;;;13.55;62.33
58473;BME280;44775;51.564;5.460;2024-03-08T09:41:34;101011.72;;;13.72;61.65
58473;BME280;44775;51.564;5.460;2024-03-08T09:44:00;101007.25;;;13.79;60.94
58473;BME280;44775;51.564;5.460;2024-03-08T09:46:26;101000.03;;;13.94;60.62
58473;BME280;44775;51.564;5.460;2024-03-08T09:48:53;100994.19;;;14.06;59.84
58473;BME280;44775;51.564;5.460;2024-03-08T09:51:21;100999.84;;;14.11;59.29
58473;BME280;44775;51.564;5.460;2024-03-08T09:53:51;100987.84;;;14.13;59.28
58473;BME280;44775;51.564;5.460;2024-03-08T09:56:18;100977.41;;;14.04;59.18
58473;BME280;44775;51.564;5.460;2024-03-08T09:58:44;100968.78;;;14.08;59.20
58473;BME280;44775;51.564;5.460;2024-03-08T10:01:28;100963.50;;;14.15;58.67
58473;BME280;44775;51.564;5.460;2024-03-08T10:03:53;100957.22;;;14.29;58.42
58473;BME280;44775;51.564;5.460;2024-03-08T10:06:23;100947.44;;;14.22;58.26
58473;BME280;44775;51.564;5.460;2024-03-08T10:08:49;100948.59;;;14.34;58.01
58473;BME280;44775;51.564;5.460;2024-03-08T10:11:17;100946.34;;;14.37;57.07
58473;BME280;44775;51.564;5.460;2024-03-08T10:13:42;100944.19;;;14.48;57.77
58473;BME280;44775;51.564;5.460;2024-03-08T10:16:08;100949.84;;;14.53;56.21
58473;BME280;44775;51.564;5.460;2024-03-08T10:18:33;100941.13;;;14.51;55.14
58473;BME280;44775;51.564;5.460;2024-03-08T10:21:07;100938.97;;;14.61;57.77
58473;BME280;44775;51.564;5.460;2024-03-08T10:23:33;100929.75;;;14.70;56.72
58473;BME280;44775;51.564;5.460;2024-03-08T10:26:15;100928.31;;;14.96;56.70
58473;BME280;44775;51.564;5.460;2024-03-08T10:28:45;100923.38;;;14.99;55.96
58473;BME280;44775;51.564;5.460;2024-03-08T10:31:13;100920.72;;;15.06;55.64
58473;BME280;44775;51.564;5.460;2024-03-08T10:33:38;100920.06;;;15.04;55.34
58473;BME280;44775;51.564;5.460;2024-03-08T10:36:06;100910.56;;;15.08;55.39
58473;BME280;44775;51.564;5.460;2024-03-08T10:38:32;100912.81;;;15.32;56.18
58473;BME280;44775;51.564;5.460;2024-03-08T10:41:01;100912.84;;;15.39;54.74
58473;BME280;44775;51.564;5.460;2024-03-08T10:43:31;100901.91;;;15.47;54.50
58473;BME280;44775;51.564;5.460;2024-03-08T10:46:18;100895.47;;;15.48;53.95
58473;BME280;44775;51.564;5.460;2024-03-08T10:48:51;100894.25;;;15.51;54.04
58473;BME280;44775;51.564;5.460;2024-03-08T10:51:18;100885.75;;;15.47;53.78
58473;BME280;44775;51.564;5.460;2024-03-08T10:53:44;100877.72;;;15.61;53.24
58473;BME280;44775;51.564;5.460;2024-03-08T10:56:11;100872.91;;;15.43;53.52
58473;BME280;44775;51.564;5.460;2024-03-08T10:58:40;100871.50;;;15.53;53.33
58473;BME280;44775;51.564;5.460;2024-03-08T11:01:06;100876.91;;;15.60;53.26
58473;BME280;44775;51.564;5.460;2024-03-08T11:08:57;100866.91;;;16.02;52.25
58473;BME280;44775;51.564;5.460;2024-03-08T11:11:30;100860.91;;;16.07;51.94
58473;BME280;44775;51.564;5.460;2024-03-08T11:13:56;100854.28;;;16.16;51.79
58473;BME280;44775;51.564;5.460;2024-03-08T11:18:50;100836.00;;;15.98;52.09
58473;BME280;44775;51.564;5.460;2024-03-08T11:21:17;100848.47;;;16.05;51.66
58473;BME280;44775;51.564;5.460;2024-03-08T11:23:42;100831.69;;;16.17;51.36
58473;BME280;44775;51.564;5.460;2024-03-08T11:26:19;100836.47;;;16.21;51.55
58473;BME280;44775;51.564;5.460;2024-03-08T11:28:45;100827.31;;;16.22;50.93
58473;BME280;44775;51.564;5.460;2024-03-08T11:33:39;100821.75;;;16.44;50.30
58473;BME280;44775;51.564;5.460;2024-03-08T11:36:22;100815.09;;;16.46;50.47
58473;BME280;44775;51.564;5.460;2024-03-08T11:38:50;100817.78;;;16.46;50.28
58473;BME280;44775;51.564;5.460;2024-03-08T11:41:22;100806.41;;;16.51;49.87
58473;BME280;44775;51.564;5.460;2024-03-08T11:43:49;100814.91;;;16.61;49.66
58473;BME280;44775;51.564;5.460;2024-03-08T11:46:15;100809.69;;;16.60;49.44
58473;BME280;44775;51.564;5.460;2024-03-08T11:48:42;100806.97;;;16.66;49.43
58473;BME280;44775;51.564;5.460;2024-03-08T11:51:09;100802.84;;;16.64;49.17
58473;BME280;44775;51.564;5.460;2024-03-08T11:53:37;100796.03;;;16.48;49.13
58473;BME280;44775;51.564;5.460;2024-03-08T11:56:09;100805.75;;;16.22;49.54
58473;BME280;44775;51.564;5.460;2024-03-08T11:58:35;100798.69;;;16.01;49.97
58473;BME280;44775;51.564;5.460;2024-03-08T12:01:12;100784.59;;;16.19;49.72
58473;BME280;44775;51.564;5.460;2024-03-08T12:03:41;100792.09;;;16.17;49.34
58473;BME280;44775;51.564;5.460;2024-03-08T12:06:12;100788.94;;;15.87;48.09
58473;BME280;44775;51.564;5.460;2024-03-08T12:08:38;100779.22;;;16.33;47.66
58473;BME280;44775;51.564;5.460;2024-03-08T12:11:04;100793.50;;;16.26;46.43
58473;BME280;44775;51.564;5.460;2024-03-08T12:13:31;100779.19;;;15.99;44.71
58473;BME280;44775;51.564;5.460;2024-03-08T12:15:57;100777.22;;;15.47;49.42
58473;BME280;44775;51.564;5.460;2024-03-08T12:18:27;100768.19;;;15.74;49.38
58473;BME280;44775;51.564;5.460;2024-03-08T12:21:14;100753.09;;;16.13;49.37
58473;BME280;44775;51.564;5.460;2024-03-08T12:23:42;100742.28;;;16.26;47.47
58473;BME280;44775;51.564;5.460;2024-03-08T12:26:17;100753.66;;;16.62;47.97
58473;BME280;44775;51.564;5.460;2024-03-08T12:28:44;100747.41;;;16.88;47.04
58473;BME280;44775;51.564;5.460;2024-03-08T12:31:13;100742.47;;;16.78;45.63
58473;BME280;44775;51.564;5.460;2024-03-08T12:33:49;100751.91;;;17.00;46.93
58473;BME280;44775;51.564;5.460;2024-03-08T12:36:16;100738.63;;;16.99;46.30
58473;BME280;44775;51.564;5.460;2024-03-08T12:38:45;100734.66;;;17.08;44.71
58473;BME280;44775;51.564;5.460;2024-03-08T12:41:14;100738.34;;;17.20;46.35
58473;BME280;44775;51.564;5.460;2024-03-08T12:43:39;100737.09;;;17.23;46.02
58473;BME280;44775;51.564;5.460;2024-03-08T12:46:05;100724.59;;;17.29;45.56
58473;BME280;44775;51.564;5.460;2024-03-08T12:48:36;100727.91;;;17.31;45.53
58473;BME280;44775;51.564;5.460;2024-03-08T12:51:06;100716.19;;;17.43;44.51
58473;BME280;44775;51.564;5.460;2024-03-08T12:53:32;100721.34;;;17.52;44.52
58473;BME280;44775;51.564;5.460;2024-03-08T12:55:58;100715.56;;;17.03;39.83
58473;BME280;44775;51.564;5.460;2024-03-08T12:58:23;100706.06;;;16.87;45.33